sensor_id;sensor_type;location;lat;lon;timestamp;temperature;humidity
33673;DHT22;20011;51.510;9.942;2023-04-28T00:00:19;10.00;84.30
33673;DHT22;20011;51.510;9.942;2023-04-28T00:02:46;10.00;83.10
33673;DHT22;20011;51.510;9.942;2023-04-28T00:05:14;10.00;82.60
33673;DHT22;20011;51.510;9.942;2023-04-28T00:07:41;10.00;82.90
33673;DHT22;20011;51.510;9.942;2023-04-28T00:10:08;10.00;83.70
33673;DHT22;20011;51.510;9.942;2023-04-28T00:12:35;10.00;83.70
33673;DHT22;20011;51.510;9.942;2023-04-28T00:15:03;10.00;83.80
33673;DHT22;20011;51.510;9.942;2023-04-28T00:17:30;10.10;83.80
33673;DHT22;20011;51.510;9.942;2023-04-28T00:24:51;10.10;82.50
33673;DHT22;20011;51.510;9.942;2023-04-28T00:27:18;10.10;83.60
33673;DHT22;20011;51.510;9.942;2023-04-28T00:32:14;10.10;83.40
33673;DHT22;20011;51.510;9.942;2023-04-28T00:34:41;10.10;85.10
33673;DHT22;20011;51.510;9.942;2023-04-28T00:37:08;10.10;85.10
33673;DHT22;20011;51.510;9.942;2023-04-28T00:39:35;10.10;84.90
33673;DHT22;20011;51.510;9.942;2023-04-28T00:44:30;10.10;84.00
33673;DHT22;20011;51.510;9.942;2023-04-28T00:46:58;10.10;84.50
33673;DHT22;20011;51.510;9.942;2023-04-28T00:49:25;10.10;85.90
33673;DHT22;20011;51.510;9.942;2023-04-28T00:51:52;10.10;85.40
33673;DHT22;20011;51.510;9.942;2023-04-28T00:54:19;10.00;85.40
33673;DHT22;20011;51.510;9.942;2023-04-28T00:56:47;10.00;85.50
33673;DHT22;20011;51.510;9.942;2023-04-28T00:59:15;10.10;86.20
33673;DHT22;20011;51.510;9.942;2023-04-28T01:01:41;10.00;86.40
33673;DHT22;20011;51.510;9.942;2023-04-28T01:06:40;10.10;85.80
33673;DHT22;20011;51.510;9.942;2023-04-28T01:09:07;10.00;86.30
33673;DHT22;20011;51.510;9.942;2023-04-28T01:11:35;10.00;86.40
33673;DHT22;20011;51.510;9.942;2023-04-28T01:14:08;10.00;86.90
33673;DHT22;20011;51.510;9.942;2023-04-28T01:16:38;10.00;86.80
33673;DHT22;20011;51.510;9.942;2023-04-28T01:19:06;10.00;87.00
33673;DHT22;20011;51.510;9.942;2023-04-28T01:24:13;10.00;87.30
33673;DHT22;20011;51.510;9.942;2023-04-28T01:26:40;10.00;88.70
33673;DHT22;20011;51.510;9.942;2023-04-28T01:29:07;10.00;89.20
33673;DHT22;20011;51.510;9.942;2023-04-28T01:31:34;10.00;89.90
33673;DHT22;20011;51.510;9.942;2023-04-28T01:36:29;9.90;88.80
33673;DHT22;20011;51.510;9.942;2023-04-28T01:38:56;9.90;89.90
33673;DHT22;20011;51.510;9.942;2023-04-28T01:43:50;9.90;90.00
33673;DHT22;20011;51.510;9.942;2023-04-28T01:48:45;9.80;90.00
33673;DHT22;20011;51.510;9.942;2023-04-28T01:51:13;9.80;89.50
33673;DHT22;20011;51.510;9.942;2023-04-28T01:53:40;9.80;89.30
33673;DHT22;20011;51.510;9.942;2023-04-28T01:58:35;9.80;89.80
33673;DHT22;20011;51.510;9.942;2023-04-28T02:03:32;9.80;89.80
33673;DHT22;20011;51.510;9.942;2023-04-28T02:06:01;9.80;90.50
33673;DHT22;20011;51.510;9.942;2023-04-28T02:08:28;9.80;90.50
33673;DHT22;20011;51.510;9.942;2023-04-28T02:10:55;9.80;90.60
33673;DHT22;20011;51.510;9.942;2023-04-28T02:13:23;9.80;90.30
33673;DHT22;20011;51.510;9.942;2023-04-28T02:15:52;9.80;90.60
33673;DHT22;20011;51.510;9.942;2023-04-28T02:18:20;9.80;90.70
33673;DHT22;20011;51.510;9.942;2023-04-28T02:23:14;9.80;90.50
33673;DHT22;20011;51.510;9.942;2023-04-28T02:25:41;9.80;90.90
33673;DHT22;20011;51.510;9.942;2023-04-28T02:28:11;9.80;90.90
33673;DHT22;20011;51.510;9.942;2023-04-28T02:33:06;9.80;90.80
33673;DHT22;20011;51.510;9.942;2023-04-28T02:35:33;9.90;91.00
33673;DHT22;20011;51.510;9.942;2023-04-28T02:38:00;9.80;90.90
33673;DHT22;20011;51.510;9.942;2023-04-28T02:40:27;9.80;91.30
33673;DHT22;20011;51.510;9.942;2023-04-28T02:45:21;9.80;90.70
33673;DHT22;20011;51.510;9.942;2023-04-28T02:50:15;9.80;90.30
33673;DHT22;20011;51.510;9.942;2023-04-28T02:52:42;9.80;90.20
33673;DHT22;20011;51.510;9.942;2023-04-28T02:55:09;9.80;87.80
33673;DHT22;20011;51.510;9.942;2023-04-28T02:57:36;9.90;86.00
33673;DHT22;20011;51.510;9.942;2023-04-28T03:00:03;9.90;86.40
33673;DHT22;20011;51.510;9.942;2023-04-28T03:05:06;10.00;85.70
33673;DHT22;20011;51.510;9.942;2023-04-28T03:07:33;10.00;85.50
33673;DHT22;20011;51.510;9.942;2023-04-28T03:10:00;10.00;86.10
33673;DHT22;20011;51.510;9.942;2023-04-28T03:12:29;10.00;85.80
33673;DHT22;20011;51.510;9.942;2023-04-28T03:17:24;10.10;86.50
33673;DHT22;20011;51.510;9.942;2023-04-28T03:19:51;10.10;87.20
33673;DHT22;20011;51.510;9.942;2023-04-28T03:22:18;10.10;86.50
33673;DHT22;20011;51.510;9.942;2023-04-28T03:24:45;10.10;87.90
33673;DHT22;20011;51.510;9.942;2023-04-28T03:27:12;10.10;88.00
33673;DHT22;20011;51.510;9.942;2023-04-28T03:32:06;10.00;89.20
33673;DHT22;20011;51.510;9.942;2023-04-28T03:37:01;10.00;89.60
33673;DHT22;20011;51.510;9.942;2023-04-28T03:39:29;10.00;88.90
33673;DHT22;20011;51.510;9.942;2023-04-28T03:41:56;10.00;88.70
33673;DHT22;20011;51.510;9.942;2023-04-28T03:44:35;10.00;88.30
33673;DHT22;20011;51.510;9.942;2023-04-28T03:47:02;10.00;89.70
33673;DHT22;20011;51.510;9.942;2023-04-28T03:49:29;10.00;89.90
33673;DHT22;20011;51.510;9.942;2023-04-28T03:54:24;10.00;90.40
33673;DHT22;20011;51.510;9.942;2023-04-28T03:56:51;10.00;90.40
33673;DHT22;20011;51.510;9.942;2023-04-28T03:59:18;10.00;90.40
33673;DHT22;20011;51.510;9.942;2023-04-28T04:06:40;9.90;90.60
33673;DHT22;20011;51.510;9.942;2023-04-28T04:09:09;9.90;91.30
33673;DHT22;20011;51.510;9.942;2023-04-28T04:11:36;9.80;91.10
33673;DHT22;20011;51.510;9.942;2023-04-28T04:14:03;9.90;91.20
33673;DHT22;20011;51.510;9.942;2023-04-28T04:16:32;9.80;91.20
33673;DHT22;20011;51.510;9.942;2023-04-28T04:18:58;9.90;91.40
33673;DHT22;20011;51.510;9.942;2023-04-28T04:21:34;9.80;91.40
33673;DHT22;20011;51.510;9.942;2023-04-28T04:28:57;9.80;90.40
33673;DHT22;20011;51.510;9.942;2023-04-28T04:31:23;9.80;91.20
33673;DHT22;20011;51.510;9.942;2023-04-28T04:33:51;9.80;91.00
33673;DHT22;20011;51.510;9.942;2023-04-28T04:36:19;9.90;90.70
33673;DHT22;20011;51.510;9.942;2023-04-28T04:41:17;9.90;90.40
33673;DHT22;20011;51.510;9.942;2023-04-28T04:43:44;9.90;90.60
33673;DHT22;20011;51.510;9.942;2023-04-28T04:48:39;9.90;90.10
33673;DHT22;20011;51.510;9.942;2023-04-28T04:51:06;9.90;89.40
33673;DHT22;20011;51.510;9.942;2023-04-28T04:53:34;10.00;89.90
33673;DHT22;20011;51.510;9.942;2023-04-28T04:58:29;10.00;88.40
33673;DHT22;20011;51.510;9.942;2023-04-28T05:06:11;10.10;86.90
33673;DHT22;20011;51.510;9.942;2023-04-28T05:08:44;10.10;87.30
33673;DHT22;20011;51.510;9.942;2023-04-28T05:11:11;10.00;87.60
33673;DHT22;20011;51.510;9.942;2023-04-28T05:18:33;10.10;87.30
33673;DHT22;20011;51.510;9.942;2023-04-28T05:23:28;10.20;86.10
33673;DHT22;20011;51.510;9.942;2023-04-28T05:25:57;10.20;86.80
33673;DHT22;20011;51.510;9.942;2023-04-28T05:29:06;10.20;87.00
33673;DHT22;20011;51.510;9.942;2023-04-28T05:31:33;10.30;85.80
33673;DHT22;20011;51.510;9.942;2023-04-28T05:34:00;10.30;86.80
33673;DHT22;20011;51.510;9.942;2023-04-28T05:41:22;10.30;86.90
33673;DHT22;20011;51.510;9.942;2023-04-28T05:43:49;10.30;87.90
33673;DHT22;20011;51.510;9.942;2023-04-28T05:46:17;10.30;87.50
33673;DHT22;20011;51.510;9.942;2023-04-28T05:48:57;10.30;88.20
33673;DHT22;20011;51.510;9.942;2023-04-28T05:53:52;10.30;88.10
33673;DHT22;20011;51.510;9.942;2023-04-28T05:56:20;10.30;88.90
33673;DHT22;20011;51.510;9.942;2023-04-28T06:01:16;10.40;88.90
33673;DHT22;20011;51.510;9.942;2023-04-28T06:03:43;10.40;90.60
33673;DHT22;20011;51.510;9.942;2023-04-28T06:06:12;10.40;91.90
33673;DHT22;20011;51.510;9.942;2023-04-28T06:08:39;10.40;92.30
33673;DHT22;20011;51.510;9.942;2023-04-28T06:11:06;10.40;92.80
33673;DHT22;20011;51.510;9.942;2023-04-28T06:16:02;11.00;94.30
33673;DHT22;20011;51.510;9.942;2023-04-28T06:18:30;10.40;95.20
33673;DHT22;20011;51.510;9.942;2023-04-28T06:21:01;10.40;95.70
33673;DHT22;20011;51.510;9.942;2023-04-28T06:23:28;10.40;96.00
33673;DHT22;20011;51.510;9.942;2023-04-28T06:28:22;10.50;96.40
33673;DHT22;20011;51.510;9.942;2023-04-28T06:30:52;10.50;96.90
33673;DHT22;20011;51.510;9.942;2023-04-28T06:33:19;10.50;97.30
33673;DHT22;20011;51.510;9.942;2023-04-28T06:38:14;10.50;97.80
33673;DHT22;20011;51.510;9.942;2023-04-28T06:40:41;10.50;97.80
33673;DHT22;20011;51.510;9.942;2023-04-28T06:43:08;10.50;98.20
33673;DHT22;20011;51.510;9.942;2023-04-28T06:45:54;10.60;98.60
33673;DHT22;20011;51.510;9.942;2023-04-28T06:48:24;10.60;98.60
33673;DHT22;20011;51.510;9.942;2023-04-28T06:53:21;10.60;98.10
33673;DHT22;20011;51.510;9.942;2023-04-28T06:58:15;10.70;98.20
33673;DHT22;20011;51.510;9.942;2023-04-28T07:03:10;10.60;98.00
33673;DHT22;20011;51.510;9.942;2023-04-28T07:05:37;10.60;98.00
33673;DHT22;20011;51.510;9.942;2023-04-28T07:08:04;10.70;98.40
33673;DHT22;20011;51.510;9.942;2023-04-28T07:10:31;10.70;98.40
33673;DHT22;20011;51.510;9.942;2023-04-28T07:12:58;10.70;99.00
33673;DHT22;20011;51.510;9.942;2023-04-28T07:15:25;10.70;99.60
33673;DHT22;20011;51.510;9.942;2023-04-28T07:17:52;10.80;99.30
33673;DHT22;20011;51.510;9.942;2023-04-28T07:20:19;10.70;99.40
33673;DHT22;20011;51.510;9.942;2023-04-28T07:25:13;10.70;99.50
33673;DHT22;20011;51.510;9.942;2023-04-28T07:27:40;10.80;99.90
33673;DHT22;20011;51.510;9.942;2023-04-28T07:30:07;10.80;99.90
33673;DHT22;20011;51.510;9.942;2023-04-28T07:32:51;10.90;99.90
33673;DHT22;20011;51.510;9.942;2023-04-28T07:35:18;10.90;99.90
33673;DHT22;20011;51.510;9.942;2023-04-28T07:37:45;10.80;99.90
33673;DHT22;20011;51.510;9.942;2023-04-28T07:42:40;10.90;99.90
33673;DHT22;20011;51.510;9.942;2023-04-28T07:45:07;10.90;99.90
33673;DHT22;20011;51.510;9.942;2023-04-28T07:47:34;10.90;99.90
33673;DHT22;20011;51.510;9.942;2023-04-28T07:50:02;11.00;99.90
33673;DHT22;20011;51.510;9.942;2023-04-28T07:52:32;11.00;99.90
33673;DHT22;20011;51.510;9.942;2023-04-28T07:54:59;10.90;99.90
33673;DHT22;20011;51.510;9.942;2023-04-28T07:59:55;11.00;99.90
33673;DHT22;20011;51.510;9.942;2023-04-28T08:02:22;11.00;99.90
33673;DHT22;20011;51.510;9.942;2023-04-28T08:04:49;11.10;99.90
33673;DHT22;20011;51.510;9.942;2023-04-28T08:07:16;11.10;99.90
33673;DHT22;20011;51.510;9.942;2023-04-28T08:09:43;11.20;99.90
33673;DHT22;20011;51.510;9.942;2023-04-28T08:12:15;11.20;99.90
33673;DHT22;20011;51.510;9.942;2023-04-28T08:14:42;11.30;99.90
33673;DHT22;20011;51.510;9.942;2023-04-28T08:17:09;11.30;99.90
33673;DHT22;20011;51.510;9.942;2023-04-28T08:19:37;11.40;99.90
33673;DHT22;20011;51.510;9.942;2023-04-28T08:22:04;11.50;99.90
33673;DHT22;20011;51.510;9.942;2023-04-28T08:24:33;11.50;99.90
33673;DHT22;20011;51.510;9.942;2023-04-28T08:27:03;11.50;99.90
33673;DHT22;20011;51.510;9.942;2023-04-28T08:29:30;11.60;99.90
33673;DHT22;20011;51.510;9.942;2023-04-28T08:31:58;11.70;99.90
33673;DHT22;20011;51.510;9.942;2023-04-28T08:34:25;11.70;99.90
33673;DHT22;20011;51.510;9.942;2023-04-28T08:36:52;11.80;99.90
33673;DHT22;20011;51.510;9.942;2023-04-28T08:39:19;11.80;99.90
33673;DHT22;20011;51.510;9.942;2023-04-28T08:41:48;11.90;99.90
33673;DHT22;20011;51.510;9.942;2023-04-28T08:44:16;12.00;99.90
33673;DHT22;20011;51.510;9.942;2023-04-28T08:46:45;12.00;99.90
33673;DHT22;20011;51.510;9.942;2023-04-28T08:49:17;12.10;99.90
33673;DHT22;20011;51.510;9.942;2023-04-28T08:51:49;12.20;99.90
33673;DHT22;20011;51.510;9.942;2023-04-28T08:54:16;12.20;99.90
33673;DHT22;20011;51.510;9.942;2023-04-28T08:56:53;12.30;99.90
33673;DHT22;20011;51.510;9.942;2023-04-28T08:59:22;12.30;99.90
33673;DHT22;20011;51.510;9.942;2023-04-28T09:01:50;12.30;99.90
33673;DHT22;20011;51.510;9.942;2023-04-28T09:04:17;12.40;99.90
33673;DHT22;20011;51.510;9.942;2023-04-28T09:06:45;12.40;99.90
33673;DHT22;20011;51.510;9.942;2023-04-28T09:14:18;12.50;99.90
33673;DHT22;20011;51.510;9.942;2023-04-28T09:16:45;12.50;99.90
33673;DHT22;20011;51.510;9.942;2023-04-28T09:19:12;12.50;99.90
33673;DHT22;20011;51.510;9.942;2023-04-28T09:21:53;12.50;99.90
33673;DHT22;20011;51.510;9.942;2023-04-28T09:26:53;12.50;99.90
33673;DHT22;20011;51.510;9.942;2023-04-28T09:29:21;12.50;99.90
33673;DHT22;20011;51.510;9.942;2023-04-28T09:31:48;12.50;99.90
33673;DHT22;20011;51.510;9.942;2023-04-28T09:34:15;12.50;99.90
33673;DHT22;20011;51.510;9.942;2023-04-28T09:36:43;12.50;99.90
33673;DHT22;20011;51.510;9.942;2023-04-28T09:39:10;12.50;99.90
33673;DHT22;20011;51.510;9.942;2023-04-28T09:41:41;12.50;99.90
33673;DHT22;20011;51.510;9.942;2023-04-28T09:44:10;12.50;99.90
33673;DHT22;20011;51.510;9.942;2023-04-28T09:46:37;12.50;99.90
33673;DHT22;20011;51.510;9.942;2023-04-28T09:49:05;12.50;99.90
33673;DHT22;20011;51.510;9.942;2023-04-28T09:51:32;12.60;99.90
33673;DHT22;20011;51.510;9.942;2023-04-28T09:54:01;12.70;99.90
33673;DHT22;20011;51.510;9.942;2023-04-28T09:56:29;12.70;99.90
33673;DHT22;20011;51.510;9.942;2023-04-28T09:58:57;12.80;99.90
33673;DHT22;20011;51.510;9.942;2023-04-28T10:01:27;12.80;99.90
33673;DHT22;20011;51.510;9.942;2023-04-28T10:03:59;12.90;99.90
33673;DHT22;20011;51.510;9.942;2023-04-28T10:06:29;12.90;99.90
33673;DHT22;20011;51.510;9.942;2023-04-28T10:08:56;13.00;99.90
33673;DHT22;20011;51.510;9.942;2023-04-28T10:11:26;13.10;99.90
33673;DHT22;20011;51.510;9.942;2023-04-28T10:13:54;13.00;99.90
33673;DHT22;20011;51.510;9.942;2023-04-28T10:16:21;13.00;99.90
33673;DHT22;20011;51.510;9.942;2023-04-28T10:18:49;13.00;99.90
33673;DHT22;20011;51.510;9.942;2023-04-28T10:21:17;13.00;99.90
33673;DHT22;20011;51.510;9.942;2023-04-28T10:23:59;12.90;99.90
33673;DHT22;20011;51.510;9.942;2023-04-28T10:27:07;12.90;99.90
33673;DHT22;20011;51.510;9.942;2023-04-28T10:29:35;12.90;99.90
33673;DHT22;20011;51.510;9.942;2023-04-28T10:32:21;12.90;99.90
33673;DHT22;20011;51.510;9.942;2023-04-28T10:34:49;12.90;99.90
33673;DHT22;20011;51.510;9.942;2023-04-28T10:37:16;12.90;99.90
33673;DHT22;20011;51.510;9.942;2023-04-28T10:42:55;12.80;99.90
33673;DHT22;20011;51.510;9.942;2023-04-28T10:48:52;12.80;99.90
33673;DHT22;20011;51.510;9.942;2023-04-28T10:56:22;12.70;99.90
33673;DHT22;20011;51.510;9.942;2023-04-28T10:58:52;12.70;99.90
33673;DHT22;20011;51.510;9.942;2023-04-28T11:04:06;12.70;99.90
33673;DHT22;20011;51.510;9.942;2023-04-28T11:06:37;12.70;99.90
33673;DHT22;20011;51.510;9.942;2023-04-28T11:12:04;12.70;99.90
33673;DHT22;20011;51.510;9.942;2023-04-28T11:14:33;12.70;99.90
33673;DHT22;20011;51.510;9.942;2023-04-28T11:17:05;12.70;99.90
33673;DHT22;20011;51.510;9.942;2023-04-28T11:19:36;12.60;99.90
33673;DHT22;20011;51.510;9.942;2023-04-28T11:22:05;12.60;99.90
33673;DHT22;20011;51.510;9.942;2023-04-28T11:24:37;12.60;99.90
33673;DHT22;20011;51.510;9.942;2023-04-28T11:27:04;12.60;99.90
33673;DHT22;20011;51.510;9.942;2023-04-28T11:29:36;12.60;99.90
33673;DHT22;20011;51.510;9.942;2023-04-28T11:32:04;12.60;99.90
33673;DHT22;20011;51.510;9.942;2023-04-28T11:34:33;12.60;99.90
33673;DHT22;20011;51.510;9.942;2023-04-28T11:37:00;12.60;99.90
33673;DHT22;20011;51.510;9.942;2023-04-28T11:39:32;12.60;99.90
33673;DHT22;20011;51.510;9.942;2023-04-28T11:42:00;12.60;99.90
33673;DHT22;20011;51.510;9.942;2023-04-28T11:44:29;12.60;99.90
33673;DHT22;20011;51.510;9.942;2023-04-28T11:46:58;12.60;99.90
33673;DHT22;20011;51.510;9.942;2023-04-28T11:49:44;12.60;99.90
33673;DHT22;20011;51.510;9.942;2023-04-28T11:52:12;12.60;99.90
33673;DHT22;20011;51.510;9.942;2023-04-28T11:54:39;12.60;99.90
33673;DHT22;20011;51.510;9.942;2023-04-28T11:57:21;12.60;99.90
33673;DHT22;20011;51.510;9.942;2023-04-28T11:59:49;12.60;99.90
33673;DHT22;20011;51.510;9.942;2023-04-28T12:02:26;12.60;99.90
33673;DHT22;20011;51.510;9.942;2023-04-28T12:05:05;12.60;99.90
33673;DHT22;20011;51.510;9.942;2023-04-28T12:07:42;12.70;99.90
33673;DHT22;20011;51.510;9.942;2023-04-28T12:10:12;12.70;99.90
33673;DHT22;20011;51.510;9.942;2023-04-28T12:12:39;12.70;99.90
33673;DHT22;20011;51.510;9.942;2023-04-28T12:15:19;12.70;99.90
33673;DHT22;20011;51.510;9.942;2023-04-28T12:17:48;12.90;99.90
33673;DHT22;20011;51.510;9.942;2023-04-28T12:20:33;12.80;99.90
33673;DHT22;20011;51.510;9.942;2023-04-28T12:23:01;12.80;99.90
33673;DHT22;20011;51.510;9.942;2023-04-28T12:25:28;12.80;99.90
33673;DHT22;20011;51.510;9.942;2023-04-28T12:27:59;12.80;99.90
33673;DHT22;20011;51.510;9.942;2023-04-28T12:30:30;12.90;99.90
33673;DHT22;20011;51.510;9.942;2023-04-28T12:32:57;12.90;99.90
33673;DHT22;20011;51.510;9.942;2023-04-28T12:35:25;12.90;99.90
33673;DHT22;20011;51.510;9.942;2023-04-28T12:37:53;12.90;99.90
33673;DHT22;20011;51.510;9.942;2023-04-28T12:40:21;12.90;99.90
33673;DHT22;20011;51.510;9.942;2023-04-28T12:42:50;13.00;99.90
33673;DHT22;20011;51.510;9.942;2023-04-28T12:45:17;13.00;99.90
33673;DHT22;20011;51.510;9.942;2023-04-28T12:47:44;13.10;99.90
33673;DHT22;20011;51.510;9.942;2023-04-28T12:50:12;13.00;99.90
33673;DHT22;20011;51.510;9.942;2023-04-28T12:52:39;13.10;99.90
33673;DHT22;20011;51.510;9.942;2023-04-28T12:55:09;13.10;99.90
33673;DHT22;20011;51.510;9.942;2023-04-28T12:57:36;13.20;99.90
33673;DHT22;20011;51.510;9.942;2023-04-28T13:00:06;13.20;99.90
33673;DHT22;20011;51.510;9.942;2023-04-28T13:02:34;13.20;99.90
33673;DHT22;20011;51.510;9.942;2023-04-28T13:05:01;13.20;99.90
33673;DHT22;20011;51.510;9.942;2023-04-28T13:07:28;13.30;99.90
33673;DHT22;20011;51.510;9.942;2023-04-28T13:09:56;13.30;99.90
33673;DHT22;20011;51.510;9.942;2023-04-28T13:12:24;13.20;99.90
33673;DHT22;20011;51.510;9.942;2023-04-28T13:14:51;13.30;99.90
33673;DHT22;20011;51.510;9.942;2023-04-28T13:17:18;13.30;99.90
33673;DHT22;20011;51.510;9.942;2023-04-28T13:19:45;13.30;99.90
33673;DHT22;20011;51.510;9.942;2023-04-28T13:22:13;13.30;99.90
33673;DHT22;20011;51.510;9.942;2023-04-28T13:25:07;13.40;99.90
33673;DHT22;20011;51.510;9.942;2023-04-28T13:27:34;13.50;99.90
33673;DHT22;20011;51.510;9.942;2023-04-28T13:30:04;13.50;99.90
33673;DHT22;20011;51.510;9.942;2023-04-28T13:32:31;13.50;99.90
33673;DHT22;20011;51.510;9.942;2023-04-28T13:34:59;13.50;99.90
33673;DHT22;20011;51.510;9.942;2023-04-28T13:37:26;13.60;99.90
33673;DHT22;20011;51.510;9.942;2023-04-28T13:39:53;13.60;99.90
33673;DHT22;20011;51.510;9.942;2023-04-28T13:42:20;13.60;99.90
33673;DHT22;20011;51.510;9.942;2023-04-28T13:44:47;13.50;99.90
33673;DHT22;20011;51.510;9.942;2023-04-28T13:47:15;13.60;99.90
33673;DHT22;20011;51.510;9.942;2023-04-28T13:49:42;13.60;99.90
33673;DHT22;20011;51.510;9.942;2023-04-28T13:52:09;13.60;99.90
33673;DHT22;20011;51.510;9.942;2023-04-28T13:54:36;13.60;99.90
33673;DHT22;20011;51.510;9.942;2023-04-28T13:57:03;13.60;99.90
33673;DHT22;20011;51.510;9.942;2023-04-28T13:59:31;13.60;99.90
33673;DHT22;20011;51.510;9.942;2023-04-28T14:01:58;13.60;99.90
33673;DHT22;20011;51.510;9.942;2023-04-28T14:04:25;13.60;99.90
33673;DHT22;20011;51.510;9.942;2023-04-28T14:06:52;13.60;99.90
33673;DHT22;20011;51.510;9.942;2023-04-28T14:09:19;13.60;99.90
33673;DHT22;20011;51.510;9.942;2023-04-28T14:11:46;13.60;99.90
33673;DHT22;20011;51.510;9.942;2023-04-28T14:14:13;13.50;99.90
33673;DHT22;20011;51.510;9.942;2023-04-28T14:16:40;13.50;99.90
33673;DHT22;20011;51.510;9.942;2023-04-28T14:19:07;13.50;99.90
33673;DHT22;20011;51.510;9.942;2023-04-28T14:21:35;13.50;99.90
33673;DHT22;20011;51.510;9.942;2023-04-28T14:24:02;13.50;99.90
33673;DHT22;20011;51.510;9.942;2023-04-28T14:26:29;13.50;99.90
33673;DHT22;20011;51.510;9.942;2023-04-28T14:28:57;13.50;99.90
33673;DHT22;20011;51.510;9.942;2023-04-28T14:31:27;13.50;99.90
33673;DHT22;20011;51.510;9.942;2023-04-28T14:33:54;13.50;99.90
33673;DHT22;20011;51.510;9.942;2023-04-28T14:36:22;13.50;99.90
33673;DHT22;20011;51.510;9.942;2023-04-28T14:38:50;13.50;99.90
33673;DHT22;20011;51.510;9.942;2023-04-28T14:41:18;13.50;99.90
33673;DHT22;20011;51.510;9.942;2023-04-28T14:43:45;13.50;99.90
33673;DHT22;20011;51.510;9.942;2023-04-28T14:46:13;13.50;99.90
33673;DHT22;20011;51.510;9.942;2023-04-28T14:48:44;13.50;99.90
33673;DHT22;20011;51.510;9.942;2023-04-28T14:51:12;13.50;99.90
33673;DHT22;20011;51.510;9.942;2023-04-28T14:53:40;13.50;99.90
33673;DHT22;20011;51.510;9.942;2023-04-28T14:56:12;13.60;99.90
33673;DHT22;20011;51.510;9.942;2023-04-28T14:58:48;13.60;99.90
33673;DHT22;20011;51.510;9.942;2023-04-28T15:01:15;13.60;99.90
33673;DHT22;20011;51.510;9.942;2023-04-28T15:03:44;13.60;99.90
33673;DHT22;20011;51.510;9.942;2023-04-28T15:06:12;13.60;99.90
33673;DHT22;20011;51.510;9.942;2023-04-28T15:08:39;13.60;99.90
33673;DHT22;20011;51.510;9.942;2023-04-28T15:11:06;13.60;99.90
33673;DHT22;20011;51.510;9.942;2023-04-28T15:13:34;13.60;99.90
33673;DHT22;20011;51.510;9.942;2023-04-28T15:16:01;13.60;99.90
33673;DHT22;20011;51.510;9.942;2023-04-28T15:18:29;13.60;99.90
33673;DHT22;20011;51.510;9.942;2023-04-28T15:21:00;13.70;99.90
33673;DHT22;20011;51.510;9.942;2023-04-28T15:23:28;13.60;99.90
33673;DHT22;20011;51.510;9.942;2023-04-28T15:25:56;13.70;99.90
33673;DHT22;20011;51.510;9.942;2023-04-28T15:28:25;13.70;99.90
33673;DHT22;20011;51.510;9.942;2023-04-28T15:30:53;13.70;99.90
33673;DHT22;20011;51.510;9.942;2023-04-28T15:33:21;13.70;99.90
33673;DHT22;20011;51.510;9.942;2023-04-28T15:35:49;13.70;99.90
33673;DHT22;20011;51.510;9.942;2023-04-28T15:38:16;12.60;99.90
33673;DHT22;20011;51.510;9.942;2023-04-28T15:40:45;13.70;99.90
33673;DHT22;20011;51.510;9.942;2023-04-28T15:43:12;13.60;99.90
33673;DHT22;20011;51.510;9.942;2023-04-28T15:45:39;13.60;99.90
33673;DHT22;20011;51.510;9.942;2023-04-28T15:48:06;13.60;99.90
33673;DHT22;20011;51.510;9.942;2023-04-28T15:50:35;13.60;99.90
33673;DHT22;20011;51.510;9.942;2023-04-28T15:53:03;13.70;99.90
33673;DHT22;20011;51.510;9.942;2023-04-28T15:57:57;13.70;99.90
33673;DHT22;20011;51.510;9.942;2023-04-28T16:00:24;13.70;99.90
33673;DHT22;20011;51.510;9.942;2023-04-28T16:02:51;13.70;99.90
33673;DHT22;20011;51.510;9.942;2023-04-28T16:05:18;13.60;99.90
33673;DHT22;20011;51.510;9.942;2023-04-28T16:07:45;13.60;99.90
33673;DHT22;20011;51.510;9.942;2023-04-28T16:10:14;13.60;99.90
33673;DHT22;20011;51.510;9.942;2023-04-28T16:12:42;13.60;99.90
33673;DHT22;20011;51.510;9.942;2023-04-28T16:15:10;13.60;99.90
33673;DHT22;20011;51.510;9.942;2023-04-28T16:17:39;13.60;99.90
33673;DHT22;20011;51.510;9.942;2023-04-28T16:20:07;13.60;99.90
33673;DHT22;20011;51.510;9.942;2023-04-28T16:22:36;13.60;99.90
33673;DHT22;20011;51.510;9.942;2023-04-28T16:25:03;13.60;99.90
33673;DHT22;20011;51.510;9.942;2023-04-28T16:27:31;13.60;99.90
33673;DHT22;20011;51.510;9.942;2023-04-28T16:29:58;13.60;99.90
33673;DHT22;20011;51.510;9.942;2023-04-28T16:32:26;13.60;99.90
33673;DHT22;20011;51.510;9.942;2023-04-28T16:34:56;13.60;99.90
33673;DHT22;20011;51.510;9.942;2023-04-28T16:37:23;13.60;99.90
33673;DHT22;20011;51.510;9.942;2023-04-28T16:39:50;13.60;99.90
33673;DHT22;20011;51.510;9.942;2023-04-28T16:42:18;13.60;99.90
33673;DHT22;20011;51.510;9.942;2023-04-28T16:44:48;13.60;99.90
33673;DHT22;20011;51.510;9.942;2023-04-28T16:47:19;13.60;99.90
33673;DHT22;20011;51.510;9.942;2023-04-28T16:49:47;13.70;99.90
33673;DHT22;20011;51.510;9.942;2023-04-28T16:52:14;13.70;99.90
33673;DHT22;20011;51.510;9.942;2023-04-28T16:54:42;13.70;99.90
33673;DHT22;20011;51.510;9.942;2023-04-28T16:57:09;13.60;99.90
33673;DHT22;20011;51.510;9.942;2023-04-28T16:59:37;13.60;99.90
33673;DHT22;20011;51.510;9.942;2023-04-28T17:02:04;13.60;99.90
33673;DHT22;20011;51.510;9.942;2023-04-28T17:04:33;13.60;99.90
33673;DHT22;20011;51.510;9.942;2023-04-28T17:07:00;13.60;99.90
33673;DHT22;20011;51.510;9.942;2023-04-28T17:09:34;13.60;99.90
33673;DHT22;20011;51.510;9.942;2023-04-28T17:12:01;13.60;99.90
33673;DHT22;20011;51.510;9.942;2023-04-28T17:14:29;13.60;99.90
33673;DHT22;20011;51.510;9.942;2023-04-28T17:16:56;13.50;99.90
33673;DHT22;20011;51.510;9.942;2023-04-28T17:19:24;13.50;99.90
33673;DHT22;20011;51.510;9.942;2023-04-28T17:21:51;13.50;99.90
33673;DHT22;20011;51.510;9.942;2023-04-28T17:24:23;13.50;99.90
33673;DHT22;20011;51.510;9.942;2023-04-28T17:26:57;13.50;99.90
33673;DHT22;20011;51.510;9.942;2023-04-28T17:29:25;13.50;99.90
33673;DHT22;20011;51.510;9.942;2023-04-28T17:31:52;13.50;99.90
33673;DHT22;20011;51.510;9.942;2023-04-28T17:34:19;13.50;99.90
33673;DHT22;20011;51.510;9.942;2023-04-28T17:36:46;13.50;99.90
33673;DHT22;20011;51.510;9.942;2023-04-28T17:41:42;13.50;99.90
33673;DHT22;20011;51.510;9.942;2023-04-28T17:44:11;13.50;99.90
33673;DHT22;20011;51.510;9.942;2023-04-28T17:46:38;13.50;99.90
33673;DHT22;20011;51.510;9.942;2023-04-28T17:49:05;13.50;99.90
33673;DHT22;20011;51.510;9.942;2023-04-28T17:51:32;13.40;99.90
33673;DHT22;20011;51.510;9.942;2023-04-28T17:54:29;13.50;99.90
33673;DHT22;20011;51.510;9.942;2023-04-28T17:56:58;13.50;99.90
33673;DHT22;20011;51.510;9.942;2023-04-28T17:59:25;13.50;99.90
33673;DHT22;20011;51.510;9.942;2023-04-28T18:01:52;13.50;99.90